createdAt,value
2018-02-15T00:00:48.258Z,101896.24
2018-02-15T00:03:17.770Z,101894.20
2018-02-15T00:05:46.658Z,101886.39
2018-02-15T00:08:15.741Z,101889.53
2018-02-15T00:10:44.837Z,101896.55
2018-02-15T00:13:13.737Z,101898.52
2018-02-15T00:15:42.684Z,101900.75
2018-02-15T00:18:11.502Z,101898.17
2018-02-15T00:20:40.399Z,101889.02
2018-02-15T00:23:09.304Z,101893.82
2018-02-15T00:25:38.241Z,101898.73
2018-02-15T00:28:06.957Z,101899.36
2018-02-15T00:30:35.742Z,101890.70
2018-02-15T00:33:04.776Z,101886.80
2018-02-15T00:35:33.634Z,101878.84
2018-02-15T00:38:03.050Z,101886.41
2018-02-15T00:40:31.941Z,101882.36
2018-02-15T00:43:01.230Z,101885.29
2018-02-15T00:45:30.086Z,101885.20
2018-02-15T00:47:58.809Z,101882.86
2018-02-15T00:50:27.913Z,101885.00
2018-02-15T00:52:56.685Z,101879.92
2018-02-15T00:55:25.413Z,101876.44
2018-02-15T00:57:54.792Z,101875.17
2018-02-15T01:00:23.589Z,101873.83
2018-02-15T01:02:52.933Z,101881.31
2018-02-15T01:05:21.630Z,101883.08
2018-02-15T01:07:50.757Z,101883.23
2018-02-15T01:10:19.645Z,101883.73
2018-02-15T01:12:48.452Z,101885.42
2018-02-15T01:15:17.209Z,101883.06
2018-02-15T01:17:46.033Z,101883.42
2018-02-15T01:20:14.854Z,101890.02
2018-02-15T01:22:43.794Z,101888.02
2018-02-15T01:25:12.470Z,101895.77
2018-02-15T01:27:41.436Z,101887.28
2018-02-15T01:30:10.468Z,101889.03
2018-02-15T01:32:39.273Z,101888.45
2018-02-15T01:35:08.232Z,101878.89
2018-02-15T01:37:37.133Z,101874.61
2018-02-15T01:40:05.939Z,101879.08
2018-02-15T01:42:35.023Z,101867.83
2018-02-15T01:45:04.238Z,101856.70
2018-02-15T01:47:33.037Z,101862.92
2018-02-15T01:50:04.962Z,101858.72
2018-02-15T01:52:33.850Z,101855.78
2018-02-15T01:55:02.482Z,101856.87
2018-02-15T01:57:31.184Z,101846.80
2018-02-15T02:00:02.068Z,101855.91
2018-02-15T02:02:31.135Z,101841.23
2018-02-15T02:05:00.045Z,101848.89
2018-02-15T02:07:28.861Z,101852.97
2018-02-15T02:09:58.013Z,101851.67
2018-02-15T02:12:27.936Z,101854.02
2018-02-15T02:14:56.703Z,101850.19
2018-02-15T02:17:25.452Z,101859.64
2018-02-15T02:19:54.812Z,101855.14
2018-02-15T02:22:23.500Z,101856.38
2018-02-15T02:24:52.568Z,101864.91
2018-02-15T02:27:21.427Z,101865.35
2018-02-15T02:29:50.499Z,101865.92
2018-02-15T02:32:19.676Z,101862.79
2018-02-15T02:34:48.628Z,101867.28
2018-02-15T02:37:17.352Z,101873.53
2018-02-15T02:39:46.154Z,101869.28
2018-02-15T02:42:15.049Z,101876.11
2018-02-15T02:44:44.137Z,101879.35
2018-02-15T02:47:12.889Z,101872.83
2018-02-15T02:49:41.499Z,101868.86
2018-02-15T02:52:10.315Z,101854.52
2018-02-15T02:54:38.916Z,101853.98
2018-02-15T02:57:07.688Z,101844.28
2018-02-15T02:59:36.659Z,101838.03
2018-02-15T03:02:05.685Z,101842.19
2018-02-15T03:04:34.380Z,101834.34
2018-02-15T03:07:03.326Z,101834.27
2018-02-15T03:09:32.227Z,101829.32
2018-02-15T03:12:01.118Z,101831.14
2018-02-15T03:14:30.006Z,101825.14
2018-02-15T03:16:58.775Z,101826.80
2018-02-15T03:19:27.381Z,101820.86
2018-02-15T03:21:56.293Z,101804.94
2018-02-15T03:24:25.163Z,101804.24
2018-02-15T03:26:54.255Z,101808.91
2018-02-15T03:29:22.865Z,101803.81
2018-02-15T03:31:51.646Z,101797.70
2018-02-15T03:34:20.300Z,101793.48
2018-02-15T03:36:49.144Z,101786.92
2018-02-15T03:39:18.093Z,101798.16
2018-02-15T03:41:46.987Z,101803.19
2018-02-15T03:44:16.082Z,101807.70
2018-02-15T03:46:44.689Z,101801.91
2018-02-15T03:49:13.642Z,101789.61
2018-02-15T03:51:43.136Z,101787.59
2018-02-15T03:54:11.813Z,101782.23
2018-02-15T03:56:40.544Z,101782.84
2018-02-15T03:59:09.264Z,101788.80
2018-02-15T04:01:38.086Z,101781.05
2018-02-15T04:04:06.989Z,101786.20
2018-02-15T04:06:35.682Z,101781.47
2018-02-15T04:09:04.545Z,101789.69
2018-02-15T04:11:33.360Z,101790.29
2018-02-15T04:14:02.355Z,101789.45
2018-02-15T04:16:31.244Z,101789.11
2018-02-15T04:19:00.550Z,101794.42
2018-02-15T04:21:29.190Z,101792.70
2018-02-15T04:23:57.963Z,101788.97
2018-02-15T04:26:26.800Z,101793.14
2018-02-15T04:28:55.468Z,101797.52
2018-02-15T04:31:24.587Z,101797.35
2018-02-15T04:33:53.390Z,101791.12
2018-02-15T04:36:22.218Z,101799.63
2018-02-15T04:38:51.106Z,101796.89
2018-02-15T04:41:20.061Z,101794.89
2018-02-15T04:43:48.677Z,101797.81
2018-02-15T04:46:17.522Z,101803.44
2018-02-15T04:48:46.257Z,101803.52
2018-02-15T04:51:15.006Z,101799.16
2018-02-15T04:53:43.769Z,101802.72
2018-02-15T04:56:12.664Z,101802.95
2018-02-15T04:58:41.420Z,101809.89
2018-02-15T05:04:05.220Z,101803.85
2018-02-15T05:06:33.765Z,101805.21
2018-02-15T05:09:02.169Z,101801.86
2018-02-15T05:11:30.528Z,101805.45
2018-02-15T05:13:58.886Z,101809.51
2018-02-15T05:16:27.301Z,101799.87
2018-02-15T05:18:55.660Z,101790.08
2018-02-15T05:21:24.022Z,101784.97
2018-02-15T05:23:52.454Z,101789.74
2018-02-15T05:26:20.778Z,101777.58
2018-02-15T05:28:49.092Z,101774.80
2018-02-15T05:31:17.526Z,101773.81
2018-02-15T05:33:45.877Z,101766.75
2018-02-15T05:36:14.492Z,101770.58
2018-02-15T05:38:42.936Z,101772.97
2018-02-15T05:41:11.273Z,101765.69
2018-02-15T05:43:39.665Z,101769.96
2018-02-15T05:46:09.294Z,101768.89
2018-02-15T05:48:37.905Z,101768.17
2018-02-15T05:51:06.341Z,101769.27
2018-02-15T05:53:34.651Z,101776.67
2018-02-15T05:56:03.057Z,101772.45
2018-02-15T05:58:31.337Z,101766.52
2018-02-15T06:00:59.900Z,101766.84
2018-02-15T06:03:28.220Z,101768.45
2018-02-15T06:05:56.662Z,101759.55
2018-02-15T06:08:25.121Z,101757.08
2018-02-15T06:10:53.529Z,101763.56
2018-02-15T06:13:22.009Z,101762.23
2018-02-15T06:15:50.433Z,101760.37
2018-02-15T06:18:18.819Z,101764.11
2018-02-15T06:20:47.362Z,101765.22
2018-02-15T06:23:15.925Z,101761.63
2018-02-15T06:25:44.386Z,101754.73
2018-02-15T06:28:12.766Z,101753.19
2018-02-15T06:30:41.334Z,101750.42
2018-02-15T06:33:09.748Z,101743.79
2018-02-15T06:35:38.109Z,101749.11
2018-02-15T06:38:06.498Z,101749.84
2018-02-15T06:40:35.055Z,101750.75
2018-02-15T06:43:03.482Z,101748.36
2018-02-15T06:45:32.015Z,101745.98
2018-02-15T06:48:00.428Z,101742.97
2018-02-15T06:50:33.427Z,101749.89
2018-02-15T06:53:01.992Z,101751.84
2018-02-15T06:55:30.390Z,101744.16
2018-02-15T06:57:58.739Z,101742.02
2018-02-15T07:00:27.145Z,101751.05
2018-02-15T07:02:55.502Z,101746.45
2018-02-15T07:05:24.963Z,101742.53
2018-02-15T07:07:53.573Z,101743.86
2018-02-15T07:10:22.569Z,101738.61
2018-02-15T07:12:50.902Z,101738.95
2018-02-15T07:15:19.367Z,101749.86
2018-02-15T07:17:48.054Z,101749.41
2018-02-15T07:20:16.434Z,101751.33
2018-02-15T07:22:44.865Z,101747.11
2018-02-15T07:25:13.272Z,101746.33
2018-02-15T07:27:41.636Z,101743.05
2018-02-15T07:30:10.018Z,101748.66
2018-02-15T07:32:38.550Z,101736.56
2018-02-15T07:35:06.993Z,101735.42
2018-02-15T07:37:35.386Z,101733.48
2018-02-15T07:40:04.145Z,101718.24
2018-02-15T07:42:32.590Z,101725.77
2018-02-15T07:45:00.886Z,101723.20
2018-02-15T07:47:29.990Z,101716.10
2018-02-15T07:49:58.362Z,101718.80
2018-02-15T07:52:26.750Z,101717.41
2018-02-15T07:54:55.053Z,101720.41
2018-02-15T07:57:23.498Z,101707.69
2018-02-15T07:59:51.822Z,101712.73
2018-02-15T08:02:23.300Z,101698.54
2018-02-15T08:04:51.722Z,101696.43
2018-02-15T08:07:20.446Z,101693.88
2018-02-15T08:09:48.861Z,101697.13
2018-02-15T08:12:17.214Z,101696.06
2018-02-15T08:14:45.599Z,101694.91
2018-02-15T08:17:13.992Z,101703.56
2018-02-15T08:19:42.438Z,101707.09
2018-02-15T08:22:10.889Z,101715.19
2018-02-15T08:24:39.450Z,101725.95
2018-02-15T08:27:07.877Z,101726.14
2018-02-15T08:29:36.525Z,101718.64
2018-02-15T08:32:05.046Z,101712.82
2018-02-15T08:34:33.516Z,101718.55
2018-02-15T08:37:01.898Z,101715.13
2018-02-15T08:39:30.243Z,101717.55
2018-02-15T08:41:58.754Z,101716.88
2018-02-15T08:44:27.028Z,101712.68
2018-02-15T08:46:55.378Z,101718.80
2018-02-15T08:49:23.750Z,101711.81
2018-02-15T08:51:52.200Z,101717.55
2018-02-15T08:54:20.797Z,101714.70
2018-02-15T08:56:49.345Z,101717.04
2018-02-15T08:59:17.834Z,101714.02
2018-02-15T09:01:46.308Z,101708.97
2018-02-15T09:04:14.630Z,101710.09
2018-02-15T09:06:43.311Z,101710.09
2018-02-15T09:09:11.611Z,101713.63
2018-02-15T09:11:39.973Z,101716.16
2018-02-15T09:14:08.507Z,101718.67
2018-02-15T09:16:36.828Z,101719.27
2018-02-15T09:19:05.262Z,101712.73
2018-02-15T09:21:33.608Z,101709.98
2018-02-15T09:24:01.875Z,101703.10
2018-02-15T09:26:30.164Z,101697.43
2018-02-15T09:28:58.709Z,101697.44
2018-02-15T09:31:27.318Z,101695.52
2018-02-15T09:33:55.649Z,101693.41
2018-02-15T09:36:24.133Z,101693.82
2018-02-15T09:38:52.450Z,101691.14
2018-02-15T09:41:20.753Z,101696.94
2018-02-15T09:43:49.156Z,101680.49
2018-02-15T09:46:17.467Z,101683.81
2018-02-15T09:48:45.765Z,101695.91
2018-02-15T09:51:14.095Z,101699.47
2018-02-15T09:53:42.456Z,101699.16
2018-02-15T09:56:10.774Z,101712.41
2018-02-15T09:58:39.060Z,101702.55
2018-02-15T10:01:07.380Z,101692.39
2018-02-15T10:03:35.755Z,101692.31
2018-02-15T10:06:04.056Z,101696.48
2018-02-15T10:08:32.345Z,101696.47
2018-02-15T10:11:00.815Z,101697.30
2018-02-15T10:13:29.378Z,101694.83
2018-02-15T10:15:57.785Z,101695.54
2018-02-15T10:18:26.053Z,101683.88
2018-02-15T10:20:54.351Z,101688.58
2018-02-15T10:23:22.667Z,101684.11
2018-02-15T10:25:51.316Z,101669.97
2018-02-15T10:28:19.656Z,101668.28
2018-02-15T10:30:47.953Z,101660.70
2018-02-15T10:33:16.388Z,101667.03
2018-02-15T10:35:44.729Z,101666.75
2018-02-15T10:38:13.028Z,101661.43
2018-02-15T10:40:41.367Z,101663.11
2018-02-15T10:43:09.670Z,101653.87
2018-02-15T10:45:38.009Z,101652.19
2018-02-15T10:48:06.325Z,101651.84
2018-02-15T10:50:34.706Z,101650.63
2018-02-15T10:53:03.003Z,101648.06
2018-02-15T10:55:31.304Z,101623.49
2018-02-15T10:57:59.585Z,101625.55
2018-02-15T11:00:32.066Z,101622.08
2018-02-15T11:03:04.711Z,101618.16
2018-02-15T11:05:37.560Z,101611.73
2018-02-15T11:08:05.797Z,101613.47
2018-02-15T11:10:34.183Z,101594.55
2018-02-15T11:13:02.704Z,101585.05
2018-02-15T11:15:31.031Z,101592.10
2018-02-15T11:17:59.291Z,101581.75
2018-02-15T11:20:27.600Z,101575.75
2018-02-15T11:22:55.965Z,101576.44
2018-02-15T11:25:24.282Z,101575.22
2018-02-15T11:27:52.552Z,101575.67
2018-02-15T11:30:20.862Z,101566.84
2018-02-15T11:32:49.261Z,101571.12
2018-02-15T11:35:17.742Z,101565.62
2018-02-15T11:37:46.285Z,101557.69
2018-02-15T11:40:14.576Z,101553.59
2018-02-15T11:42:42.883Z,101550.04
2018-02-15T11:45:11.220Z,101540.23
2018-02-15T11:47:39.929Z,101519.29
2018-02-15T11:50:08.660Z,101503.74
2018-02-15T11:52:36.954Z,101483.70
2018-02-15T11:55:05.379Z,101497.86
2018-02-15T11:57:33.655Z,101503.27
2018-02-15T12:00:01.905Z,101492.34
2018-02-15T12:02:30.316Z,101492.89
2018-02-15T12:04:58.564Z,101489.01
2018-02-15T12:07:26.880Z,101487.83
2018-02-15T12:09:55.395Z,101478.22
2018-02-15T12:12:23.735Z,101499.04
2018-02-15T12:14:52.456Z,101484.74
2018-02-15T12:17:20.968Z,101481.16
2018-02-15T12:19:49.348Z,101472.70
2018-02-15T12:22:17.679Z,101478.73
2018-02-15T12:24:46.107Z,101472.42
2018-02-15T12:27:14.431Z,101472.47
2018-02-15T12:29:42.684Z,101469.52
2018-02-15T12:32:10.996Z,101458.17
2018-02-15T12:34:39.413Z,101458.20
2018-02-15T12:37:07.813Z,101458.77
2018-02-15T12:39:36.183Z,101460.05
2018-02-15T12:42:04.936Z,101453.30
2018-02-15T12:44:33.217Z,101443.98
2018-02-15T12:47:01.541Z,101438.09
2018-02-15T12:49:29.816Z,101442.22
2018-02-15T12:51:58.172Z,101435.45
2018-02-15T12:54:26.505Z,101422.11
2018-02-15T12:56:54.956Z,101422.75
2018-02-15T12:59:23.226Z,101420.88
2018-02-15T13:01:51.644Z,101430.75
2018-02-15T13:04:19.988Z,101418.95
2018-02-15T13:06:48.472Z,101413.45
2018-02-15T13:09:18.100Z,101419.66
2018-02-15T13:11:46.706Z,101406.61
2018-02-15T13:14:15.149Z,101418.08
2018-02-15T13:16:53.256Z,101407.86
2018-02-15T13:20:30.431Z,101400.91
2018-02-15T13:22:58.739Z,101400.11
2018-02-15T13:25:27.804Z,101393.91
2018-02-15T13:28:07.401Z,101395.54
2018-02-15T13:30:35.739Z,101394.80
2018-02-15T13:33:05.847Z,101391.03
2018-02-15T13:35:35.516Z,101378.92
2018-02-15T13:38:03.822Z,101386.11
2018-02-15T13:40:32.154Z,101383.39
2018-02-15T13:43:00.423Z,101377.91
2018-02-15T13:45:28.951Z,101374.20
2018-02-15T13:47:57.234Z,101375.17
2018-02-15T13:50:25.666Z,101367.30
2018-02-15T13:52:53.926Z,101363.75
2018-02-15T13:55:22.488Z,101364.14
2018-02-15T13:57:50.959Z,101351.41
2018-02-15T14:00:19.372Z,101349.64
2018-02-15T14:02:47.754Z,101351.61
2018-02-15T14:05:16.297Z,101353.19
2018-02-15T14:07:44.637Z,101345.53
2018-02-15T14:10:13.079Z,101350.20
2018-02-15T14:12:41.578Z,101352.88
2018-02-15T14:15:10.181Z,101352.01
2018-02-15T14:17:38.533Z,101346.34
2018-02-15T14:20:07.001Z,101340.62
2018-02-15T14:22:35.378Z,101338.54
2018-02-15T14:25:03.712Z,101337.55
2018-02-15T14:27:32.451Z,101343.53
2018-02-15T14:30:00.901Z,101330.72
2018-02-15T14:32:29.431Z,101323.49
2018-02-15T14:34:58.075Z,101319.48
2018-02-15T14:37:26.532Z,101317.58
2018-02-15T14:39:54.898Z,101313.44
2018-02-15T14:42:23.305Z,101314.11
2018-02-15T14:44:51.855Z,101308.86
2018-02-15T14:47:20.472Z,101302.20
2018-02-15T14:49:48.827Z,101302.26
2018-02-15T14:52:17.314Z,101289.16
2018-02-15T14:54:45.882Z,101285.41
2018-02-15T14:57:14.389Z,101276.88
2018-02-15T14:59:43.925Z,101271.02
2018-02-15T15:02:12.382Z,101267.88
2018-02-15T15:04:40.925Z,101260.06
2018-02-15T15:07:09.326Z,101255.98
2018-02-15T15:09:37.702Z,101263.25
2018-02-15T15:12:06.546Z,101269.91
2018-02-15T15:14:34.996Z,101276.06
2018-02-15T15:17:03.510Z,101273.57
2018-02-15T15:19:32.110Z,101281.70
2018-02-15T15:22:00.613Z,101282.26
2018-02-15T15:24:29.086Z,101281.25
2018-02-15T15:26:57.495Z,101280.61
2018-02-15T15:29:26.321Z,101277.70
2018-02-15T15:31:54.669Z,101289.86
2018-02-15T15:34:23.494Z,101284.92
2018-02-15T15:36:58.136Z,101283.31
2018-02-15T15:39:30.202Z,101284.23
2018-02-15T15:41:59.579Z,101284.28
2018-02-15T15:44:27.998Z,101278.09
2018-02-15T15:46:56.473Z,101272.78
2018-02-15T15:49:24.814Z,101269.11
2018-02-15T15:51:53.264Z,101264.15
2018-02-15T15:54:21.626Z,101268.63
2018-02-15T15:56:50.029Z,101272.76
2018-02-15T15:59:18.399Z,101278.87
2018-02-15T16:01:46.777Z,101286.61
2018-02-15T16:04:15.605Z,101292.25
2018-02-15T16:06:44.118Z,101294.49
2018-02-15T16:09:12.482Z,101288.50
2018-02-15T16:11:40.857Z,101275.75
2018-02-15T16:14:09.342Z,101264.02
2018-02-15T16:16:44.441Z,101261.81
2018-02-15T16:19:12.791Z,101262.86
2018-02-15T16:21:41.236Z,101263.25
2018-02-15T16:24:09.610Z,101262.45
2018-02-15T16:26:37.980Z,101267.47
2018-02-15T16:29:06.309Z,101273.84
2018-02-15T16:31:34.935Z,101272.55
2018-02-15T16:34:03.246Z,101272.55
2018-02-15T16:36:31.634Z,101262.45
2018-02-15T16:38:59.978Z,101266.59
2018-02-15T16:41:28.372Z,101257.75
2018-02-15T16:43:56.683Z,101261.88
2018-02-15T16:46:25.081Z,101260.02
2018-02-15T16:48:53.516Z,101261.16
2018-02-15T16:51:21.866Z,101259.88
2018-02-15T16:53:50.355Z,101266.41
2018-02-15T16:56:18.861Z,101270.36
2018-02-15T16:58:47.249Z,101271.55
2018-02-15T17:01:15.781Z,101271.47
2018-02-15T17:03:44.175Z,101272.10
2018-02-15T17:06:12.865Z,101272.21
2018-02-15T17:08:41.258Z,101273.45
2018-02-15T17:11:09.745Z,101279.27
2018-02-15T17:13:38.209Z,101278.30
2018-02-15T17:16:06.561Z,101275.28
2018-02-15T17:18:34.943Z,101269.26
2018-02-15T17:21:03.459Z,101264.62
2018-02-15T17:23:31.902Z,101257.23
2018-02-15T17:26:00.421Z,101263.45
2018-02-15T17:28:28.741Z,101262.84
2018-02-15T17:30:57.168Z,101267.37
2018-02-15T17:33:25.618Z,101267.27
2018-02-15T17:35:53.998Z,101269.31
2018-02-15T17:38:22.335Z,101268.63
2018-02-15T17:40:50.921Z,101263.00
2018-02-15T17:43:19.270Z,101262.34
2018-02-15T17:45:48.691Z,101256.61
2018-02-15T17:48:17.125Z,101256.36
2018-02-15T17:50:45.490Z,101260.89
2018-02-15T17:53:14.078Z,101265.00
2018-02-15T17:55:42.762Z,101266.36
2018-02-15T17:58:11.350Z,101262.47
2018-02-15T18:00:39.841Z,101272.27
2018-02-15T18:03:08.253Z,101262.05
2018-02-15T18:05:36.716Z,101258.11
2018-02-15T18:08:05.025Z,101254.98
2018-02-15T18:10:33.504Z,101253.83
2018-02-15T18:13:01.893Z,101260.09
2018-02-15T18:15:30.283Z,101256.54
2018-02-15T18:17:58.647Z,101250.60
2018-02-15T18:20:27.215Z,101247.48
2018-02-15T18:22:55.549Z,101256.59
2018-02-15T18:25:23.922Z,101249.63
2018-02-15T18:27:52.283Z,101250.55
2018-02-15T18:30:21.072Z,101246.55
2018-02-15T18:32:49.589Z,101241.50
2018-02-15T18:35:18.086Z,101243.28
2018-02-15T18:37:46.530Z,101240.81
2018-02-15T18:40:15.082Z,101243.17
2018-02-15T18:42:43.471Z,101241.39
2018-02-15T18:45:12.023Z,101239.52
2018-02-15T18:47:40.549Z,101236.91
2018-02-15T18:50:08.999Z,101228.86
2018-02-15T18:52:37.370Z,101230.17
2018-02-15T18:55:05.805Z,101230.02
2018-02-15T18:57:34.527Z,101228.15
2018-02-15T19:00:03.173Z,101235.33
2018-02-15T19:02:31.921Z,101235.84
2018-02-15T19:05:00.562Z,101232.11
2018-02-15T19:07:28.973Z,101235.45
2018-02-15T19:09:57.319Z,101229.30
2018-02-15T19:12:25.949Z,101229.72
2018-02-15T19:14:54.557Z,101239.12
2018-02-15T19:17:23.043Z,101236.11
2018-02-15T19:19:51.422Z,101231.13
2018-02-15T19:22:20.289Z,101219.12
2018-02-15T19:24:48.929Z,101222.12
2018-02-15T19:27:17.358Z,101220.31
2018-02-15T19:29:45.710Z,101215.16
2018-02-15T19:32:14.072Z,101209.42
2018-02-15T19:34:42.680Z,101209.75
2018-02-15T19:37:11.084Z,101211.93
2018-02-15T19:39:39.414Z,101209.64
2018-02-15T19:42:07.889Z,101214.94
2018-02-15T19:44:36.634Z,101201.84
2018-02-15T19:47:05.158Z,101203.56
2018-02-15T19:49:33.802Z,101199.62
2018-02-15T19:52:02.182Z,101205.63
2018-02-15T19:54:30.711Z,101198.36
2018-02-15T19:56:59.066Z,101194.56
2018-02-15T19:59:27.448Z,101186.14
2018-02-15T20:02:58.834Z,101193.67
2018-02-15T20:05:27.285Z,101187.66
2018-02-15T20:07:55.735Z,101190.36
2018-02-15T20:10:24.613Z,101193.69
2018-02-15T20:12:53.210Z,101189.98
2018-02-15T20:15:21.979Z,101190.09
2018-02-15T20:17:50.505Z,101181.50
2018-02-15T20:20:23.082Z,101184.11
2018-02-15T20:22:51.465Z,101183.08
2018-02-15T20:25:19.861Z,101188.39
2018-02-15T20:28:25.462Z,101194.78
2018-02-15T20:30:53.878Z,101185.42
2018-02-15T20:33:22.218Z,101171.94
2018-02-15T20:35:50.593Z,101175.23
2018-02-15T20:38:23.113Z,101180.27
2018-02-15T20:40:51.527Z,101184.00
2018-02-15T20:43:19.901Z,101185.25
2018-02-15T20:45:48.428Z,101191.50
2018-02-15T20:48:16.775Z,101192.18
2018-02-15T20:52:51.906Z,101193.53
2018-02-15T20:55:53.835Z,101199.82
2018-02-15T20:58:22.405Z,101195.91
2018-02-15T21:00:50.905Z,101201.53
2018-02-15T21:03:19.251Z,101198.36
2018-02-15T21:05:47.681Z,101194.24
2018-02-15T21:08:16.030Z,101199.82
2018-02-15T21:10:44.790Z,101171.22
2018-02-15T21:13:13.177Z,101193.58
2018-02-15T21:15:41.545Z,101195.39
2018-02-15T21:18:10.167Z,101194.41
2018-02-15T21:20:38.644Z,101192.95
2018-02-15T21:23:07.064Z,101189.37
2018-02-15T21:25:35.438Z,101178.91
2018-02-15T21:28:03.864Z,101185.41
2018-02-15T21:30:32.592Z,101182.23
2018-02-15T21:33:01.010Z,101180.57
2018-02-15T21:35:29.542Z,101166.28
2018-02-15T21:37:57.873Z,101167.38
2018-02-15T21:40:26.308Z,101160.09
2018-02-15T21:42:54.836Z,101159.56
2018-02-15T21:45:23.216Z,101177.25
2018-02-15T21:47:51.572Z,101184.78
2018-02-15T21:50:19.949Z,101186.98
2018-02-15T21:52:48.329Z,101184.80
2018-02-15T21:55:16.714Z,101186.28
2018-02-15T21:57:45.538Z,101189.77
2018-02-15T22:00:13.926Z,101188.90
2018-02-15T22:02:43.093Z,101195.03
2018-02-15T22:05:11.465Z,101184.47
2018-02-15T22:07:39.842Z,101187.70
2018-02-15T22:10:08.330Z,101191.19
2018-02-15T22:12:36.697Z,101198.05
2018-02-15T22:15:05.066Z,101199.66
2018-02-15T22:17:33.693Z,101192.86
2018-02-15T22:20:02.230Z,101194.98
2018-02-15T22:22:30.657Z,101198.27
2018-02-15T22:24:58.945Z,101199.35
2018-02-15T22:27:27.336Z,101203.83
2018-02-15T22:29:55.664Z,101206.27
2018-02-15T22:32:24.129Z,101200.75
2018-02-15T22:34:52.477Z,101202.89
2018-02-15T22:37:20.828Z,101199.82
2018-02-15T22:39:49.121Z,101191.66
2018-02-15T22:42:17.860Z,101189.00
2018-02-15T22:44:46.158Z,101190.88
2018-02-15T22:47:14.550Z,101184.32
2018-02-15T22:49:42.860Z,101192.38
2018-02-15T22:52:11.289Z,101196.86
2018-02-15T22:54:39.572Z,101190.50
2018-02-15T22:57:07.950Z,101191.74
2018-02-15T22:59:36.349Z,101185.13
2018-02-15T23:02:04.751Z,101183.75
2018-02-15T23:04:33.067Z,101189.41
2018-02-15T23:07:01.465Z,101194.55
2018-02-15T23:09:30.013Z,101193.72
2018-02-15T23:11:58.507Z,101187.31
2018-02-15T23:14:26.964Z,101192.52
2018-02-15T23:16:55.389Z,101179.08
2018-02-15T23:19:23.721Z,101187.52
2018-02-15T23:21:52.054Z,101180.27
2018-02-15T23:24:20.452Z,101185.08
2018-02-15T23:26:48.772Z,101183.42
2018-02-15T23:29:17.076Z,101177.17
2018-02-15T23:31:45.561Z,101178.47
2018-02-15T23:34:14.281Z,101182.78
2018-02-15T23:36:42.829Z,101181.94
2018-02-15T23:39:11.120Z,101186.91
2018-02-15T23:41:39.438Z,101195.26
2018-02-15T23:44:07.829Z,101200.14
2018-02-15T23:46:36.306Z,101194.05
2018-02-15T23:49:04.645Z,101195.51
2018-02-15T23:51:33.190Z,101200.04
2018-02-15T23:54:01.732Z,101197.72
2018-02-15T23:56:30.076Z,101202.98
2018-02-15T23:58:58.635Z,101212.61
